createdAt,value
2023-06-10T00:01:07.603Z,99971.38
2023-06-10T00:06:09.910Z,99975.56
2023-06-10T00:11:12.245Z,99973.53
2023-06-10T00:16:14.681Z,99947.22
2023-06-10T00:21:17.041Z,99955.25
2023-06-10T00:26:19.458Z,99966.44
2023-06-10T00:31:22.001Z,99947.63
2023-06-10T00:36:24.220Z,99968.06
2023-06-10T00:41:29.769Z,99974.13
2023-06-10T00:46:34.221Z,99963.25
2023-06-10T00:51:37.763Z,99969.50
2023-06-10T00:56:40.118Z,99963.44
2023-06-10T01:01:44.983Z,99963.75
2023-06-10T01:06:54.073Z,99968.78
2023-06-10T01:12:04.606Z,99954.53
2023-06-10T01:17:08.618Z,99928.41
2023-06-10T01:22:12.231Z,99955.88
2023-06-10T01:27:17.429Z,99955.19
2023-06-10T01:32:29.177Z,99931.69
2023-06-10T01:37:34.037Z,99938.09
2023-06-10T01:42:37.030Z,99949.84
2023-06-10T01:47:39.330Z,99940.19
2023-06-10T01:52:41.648Z,99930.56
2023-06-10T01:57:43.969Z,99946.53
2023-06-10T02:02:46.462Z,99934.91
2023-06-10T02:07:48.927Z,99938.00
2023-06-10T02:12:51.402Z,99939.41
2023-06-10T02:17:53.946Z,99947.63
2023-06-10T02:22:56.432Z,99953.84
2023-06-10T02:27:58.716Z,99950.88
2023-06-10T02:33:01.077Z,99940.59
2023-06-10T02:38:03.317Z,99950.44
2023-06-10T02:43:05.615Z,99946.94
2023-06-10T02:48:07.941Z,99949.94
2023-06-10T02:53:10.309Z,99958.16
2023-06-10T02:58:12.553Z,99951.22
2023-06-10T03:03:15.016Z,99950.94
2023-06-10T03:08:17.295Z,99965.75
2023-06-10T03:13:19.492Z,99968.50
2023-06-10T03:18:22.001Z,99964.47
2023-06-10T03:23:24.981Z,99979.50
2023-06-10T03:28:27.387Z,99987.16
2023-06-10T03:33:29.660Z,99973.81
2023-06-10T03:38:31.948Z,99991.00
2023-06-10T03:43:34.342Z,99983.91
2023-06-10T03:48:36.565Z,99999.94
2023-06-10T03:53:38.868Z,99997.94
2023-06-10T03:58:44.029Z,99990.56
2023-06-10T04:03:52.915Z,99986.66
2023-06-10T04:08:55.261Z,99990.50
2023-06-10T04:13:57.470Z,99987.38
2023-06-10T04:19:02.070Z,99966.63
2023-06-10T04:24:04.604Z,99983.97
2023-06-10T04:29:06.952Z,99972.38
2023-06-10T04:34:09.296Z,99986.03
2023-06-10T04:39:12.155Z,99990.69
2023-06-10T04:44:15.157Z,99980.75
2023-06-10T04:49:17.353Z,99988.91
2023-06-10T04:54:19.710Z,99995.03
2023-06-10T04:59:21.951Z,99993.88
2023-06-10T05:04:24.304Z,100004.56
2023-06-10T05:09:27.573Z,100001.13
2023-06-10T05:14:29.830Z,100005.41
2023-06-10T05:19:32.247Z,100000.94
2023-06-10T05:24:34.486Z,99985.13
2023-06-10T05:29:36.752Z,99986.81
2023-06-10T05:34:39.127Z,99985.78
2023-06-10T05:39:41.505Z,99977.00
2023-06-10T05:44:43.974Z,99984.06
2023-06-10T05:49:49.670Z,100003.28
2023-06-10T05:54:52.389Z,99994.88
2023-06-10T05:59:54.613Z,99972.53
2023-06-10T06:04:56.859Z,99988.50
2023-06-10T06:09:59.279Z,99979.72
2023-06-10T06:15:01.585Z,99987.59
2023-06-10T06:20:05.040Z,99978.22
2023-06-10T06:25:07.854Z,99983.44
2023-06-10T06:30:11.140Z,99987.84
2023-06-10T06:35:13.340Z,99987.75
2023-06-10T06:40:15.839Z,99981.66
2023-06-10T06:45:18.200Z,99977.09
2023-06-10T06:50:20.943Z,99972.41
2023-06-10T06:55:23.230Z,99967.75
2023-06-10T07:00:25.484Z,99946.88
2023-06-10T07:05:28.785Z,99952.47
2023-06-10T07:10:31.164Z,99933.00
2023-06-10T07:15:34.290Z,99949.88
2023-06-10T07:20:36.536Z,99948.75
2023-06-10T07:25:38.881Z,99950.88
2023-06-10T07:30:41.267Z,99941.84
2023-06-10T07:35:44.600Z,99939.44
2023-06-10T07:40:47.214Z,99938.72
2023-06-10T07:45:49.504Z,99935.78
2023-06-10T07:50:51.824Z,99932.09
2023-06-10T07:55:54.110Z,99923.25
2023-06-10T08:00:56.323Z,99919.75
2023-06-10T08:05:59.584Z,99916.44
2023-06-10T08:11:02.040Z,99923.03
2023-06-10T08:16:04.692Z,99914.56
2023-06-10T08:21:07.293Z,99903.06
2023-06-10T08:26:09.628Z,99898.44
2023-06-10T08:31:11.913Z,99893.72
2023-06-10T08:36:14.344Z,99892.31
2023-06-10T08:41:19.258Z,99895.38
2023-06-10T08:46:22.200Z,99895.22
2023-06-10T08:51:28.727Z,99886.94
2023-06-10T08:56:32.718Z,99884.63
2023-06-10T09:01:35.663Z,99874.03
2023-06-10T09:06:39.487Z,99860.88
2023-06-10T09:11:44.238Z,99870.50
2023-06-10T09:16:48.192Z,99853.06
2023-06-10T09:21:50.368Z,99858.69
2023-06-10T09:27:06.725Z,99852.63
2023-06-10T09:32:10.705Z,99833.53
2023-06-10T09:37:15.177Z,99837.13
2023-06-10T09:42:19.879Z,99835.75
2023-06-10T09:47:24.174Z,99840.22
2023-06-10T09:52:28.201Z,99827.63
2023-06-10T09:57:45.693Z,99822.44
2023-06-10T10:02:55.359Z,99827.13
2023-06-10T10:07:58.097Z,99823.47
2023-06-10T10:13:00.926Z,99813.66
2023-06-10T10:18:12.355Z,99819.84
2023-06-10T10:23:19.956Z,99799.91
2023-06-10T10:28:25.857Z,99815.56
2023-06-10T10:33:42.937Z,99805.84
2023-06-10T10:38:52.449Z,99790.97
2023-06-10T10:43:56.263Z,99780.16
2023-06-10T10:49:00.331Z,99784.06
2023-06-10T10:54:15.545Z,99775.16
2023-06-10T10:59:21.393Z,99752.16
2023-06-10T11:04:23.755Z,99764.81
2023-06-10T11:09:30.439Z,99753.25
2023-06-10T11:14:34.358Z,99739.41
2023-06-10T11:19:40.430Z,99750.41
2023-06-10T11:24:42.723Z,99726.88
2023-06-10T11:30:20.646Z,99731.81
2023-06-10T11:35:25.557Z,99729.53
2023-06-10T11:40:28.144Z,99710.66
2023-06-10T11:45:31.454Z,99716.50
2023-06-10T11:50:35.241Z,99714.00
2023-06-10T11:55:44.993Z,99711.78
2023-06-10T12:00:50.734Z,99697.59
2023-06-10T12:06:11.073Z,99675.25
2023-06-10T12:11:13.419Z,99684.50
2023-06-10T12:16:16.164Z,99680.91
2023-06-10T12:21:19.303Z,99660.75
2023-06-10T12:26:21.540Z,99675.84
2023-06-10T12:31:23.882Z,99673.22
2023-06-10T12:36:26.325Z,99671.22
2023-06-10T12:41:30.617Z,99660.38
2023-06-10T12:46:39.671Z,99669.88
2023-06-10T12:51:41.928Z,99665.22
2023-06-10T12:56:44.167Z,99668.06
2023-06-10T13:01:52.214Z,99658.63
2023-06-10T13:06:54.987Z,99655.22
2023-06-10T13:11:57.233Z,99656.28
2023-06-10T13:16:59.508Z,99667.53
2023-06-10T13:22:01.910Z,99652.78
2023-06-10T13:27:04.181Z,99660.44
2023-06-10T13:32:06.992Z,99660.69
2023-06-10T13:37:09.334Z,99663.31
2023-06-10T13:42:11.577Z,99649.72
2023-06-10T13:47:13.922Z,99656.63
2023-06-10T13:52:16.287Z,99650.09
2023-06-10T13:57:18.608Z,99653.31
2023-06-10T14:02:20.995Z,99633.81
2023-06-10T14:07:23.376Z,99639.91
2023-06-10T14:12:26.317Z,99634.16
2023-06-10T14:17:28.657Z,99625.91
2023-06-10T14:22:31.038Z,99607.81
2023-06-10T14:27:33.297Z,99633.25
2023-06-10T14:32:35.657Z,99634.31
2023-06-10T14:37:38.397Z,99624.16
2023-06-10T14:42:41.127Z,99636.97
2023-06-10T14:47:44.319Z,99631.09
2023-06-10T14:52:46.620Z,99635.34
2023-06-10T14:57:48.913Z,99693.56
2023-06-10T15:02:52.228Z,99683.78
2023-06-10T15:07:54.700Z,99682.13
2023-06-10T15:12:57.500Z,99703.13
2023-06-10T15:17:59.962Z,99706.94
2023-06-10T15:23:03.184Z,99717.91
2023-06-10T15:28:06.287Z,99772.56
2023-06-10T15:33:08.626Z,99802.84
2023-06-10T15:38:10.914Z,99784.22
2023-06-10T15:43:14.725Z,99772.69
2023-06-10T15:48:17.010Z,99764.63
2023-06-10T15:53:19.253Z,99744.75
2023-06-10T15:58:21.596Z,99713.00
2023-06-10T16:03:23.990Z,99710.78
2023-06-10T16:08:26.257Z,99711.81
2023-06-10T16:13:30.077Z,99699.22
2023-06-10T16:18:32.637Z,99710.72
2023-06-10T16:23:35.025Z,99679.94
2023-06-10T16:28:37.303Z,99727.63
2023-06-10T16:33:39.607Z,99737.22
2023-06-10T16:38:41.953Z,99719.63
2023-06-10T16:43:44.246Z,99774.94
2023-06-10T16:48:46.545Z,99804.72
2023-06-10T16:53:48.828Z,99800.31
2023-06-10T16:58:51.017Z,99807.53
2023-06-10T17:03:53.235Z,99807.34
2023-06-10T17:08:55.519Z,99789.97
2023-06-10T17:13:57.769Z,99795.06
2023-06-10T17:19:00.089Z,99792.31
2023-06-10T17:24:02.639Z,99802.03
2023-06-10T17:29:05.135Z,99801.53
2023-06-10T17:34:07.350Z,99794.34
2023-06-10T17:39:09.624Z,99786.44
2023-06-10T17:44:11.934Z,99801.47
2023-06-10T17:49:14.180Z,99816.06
2023-06-10T17:54:16.535Z,99809.06
2023-06-10T17:59:18.780Z,99792.31
2023-06-10T18:04:21.158Z,99781.88
2023-06-10T18:09:26.918Z,99771.25
2023-06-10T18:14:29.194Z,99768.22
2023-06-10T18:19:31.418Z,99765.28
2023-06-10T18:24:33.718Z,99765.59
2023-06-10T18:29:36.482Z,99766.19
2023-06-10T18:34:38.821Z,99760.09
2023-06-10T18:39:41.029Z,99772.81
2023-06-10T18:44:43.308Z,99794.69
2023-06-10T18:49:46.734Z,99790.03
2023-06-10T18:54:49.137Z,99802.72
2023-06-10T18:59:51.318Z,99812.22
2023-06-10T19:04:53.803Z,99825.25
2023-06-10T19:09:56.046Z,99828.81
2023-06-10T19:14:58.282Z,99839.38
2023-06-10T19:20:00.649Z,99838.34
2023-06-10T19:25:08.094Z,99838.44
2023-06-10T19:30:10.947Z,99859.19
2023-06-10T19:35:13.336Z,99861.09
2023-06-10T19:40:15.602Z,99847.72
2023-06-10T19:45:18.224Z,99877.41
2023-06-10T19:50:20.762Z,99870.19
2023-06-10T19:55:23.678Z,99875.88
2023-06-10T20:00:26.156Z,99874.88
2023-06-10T20:05:28.515Z,99878.63
2023-06-10T20:10:30.922Z,99891.75
2023-06-10T20:15:33.411Z,99889.19
2023-06-10T20:20:35.871Z,99887.38
2023-06-10T20:25:38.162Z,99886.47
2023-06-10T20:30:40.593Z,99874.06
2023-06-10T20:35:44.695Z,99886.06
2023-06-10T20:40:46.996Z,99879.25
2023-06-10T20:45:50.173Z,99889.13
2023-06-10T20:50:52.725Z,99893.19
2023-06-10T20:55:55.296Z,99883.34
2023-06-10T21:00:57.705Z,99878.84
2023-06-10T21:05:59.973Z,99879.53
2023-06-10T21:11:02.340Z,99897.53
2023-06-10T21:16:04.769Z,99900.28
2023-06-10T21:21:07.138Z,99890.22
2023-06-10T21:26:09.423Z,99907.44
2023-06-10T21:31:11.713Z,99896.69
2023-06-10T21:36:19.041Z,99907.75
2023-06-10T21:41:23.489Z,99909.88
2023-06-10T21:46:27.498Z,99895.41
2023-06-10T21:51:29.794Z,99906.38
2023-06-10T21:56:35.162Z,99898.38
2023-06-10T22:01:37.535Z,99891.75
2023-06-10T22:06:40.046Z,99909.16
2023-06-10T22:11:44.088Z,99891.44
2023-06-10T22:16:46.532Z,99883.44
2023-06-10T22:21:48.801Z,99885.28
2023-06-10T22:26:54.128Z,99880.25
2023-06-10T22:31:57.400Z,99883.69
2023-06-10T22:36:59.683Z,99877.16
2023-06-10T22:42:02.060Z,99876.78
2023-06-10T22:47:04.607Z,99836.72
2023-06-10T22:52:07.185Z,99856.91
2023-06-10T22:57:09.491Z,99866.75
2023-06-10T23:02:11.857Z,99847.41
2023-06-10T23:07:15.586Z,99856.06
2023-06-10T23:12:18.061Z,99865.34
2023-06-10T23:17:20.486Z,99844.00
2023-06-10T23:22:25.529Z,99834.72
2023-06-10T23:27:29.454Z,99849.53
2023-06-10T23:32:32.646Z,99836.22
2023-06-10T23:37:35.035Z,99824.97
2023-06-10T23:42:37.677Z,99829.75
2023-06-10T23:47:40.061Z,99838.13
2023-06-10T23:52:42.351Z,99825.63
2023-06-10T23:57:44.635Z,99819.91
